Time;durP1;ratioP1;P1;durP2;ratioP2;P2;SDS_P1;SDS_P2;PMS_P1;PMS_P2;Temp;Humidity;BMP_temperature;BMP_pressure;BME280_temperature;BME280_humidity;BME280_pressure;Samples;Min_cycle;Max_cycle;Signal;HPM_P1;HPM_P2
2022/02/25 00:00:49;;;;;;;6.60;4.50;;;;;;;6.77;63.23;99087.97;214533;1274;139049;-71
2022/02/25 00:05:53;;;;;;;4.90;3.40;;;;;;;6.79;63.07;99086.11;214178;1274;150357;-72
2022/02/25 00:10:58;;;;;;;10.30;5.60;;;;;;;6.79;63.14;99087.98;214011;1274;140485;-71
2022/02/25 00:16:02;;;;;;;6.40;4.10;;;;;;;6.80;62.62;99092.25;214859;1274;139518;-74
2022/02/25 00:21:07;;;;;;;4.90;3.10;;;;;;;6.81;62.54;99098.88;213306;1274;139089;-74
2022/02/25 00:26:11;;;;;;;7.50;3.20;;;;;;;6.81;62.46;99100.31;213539;1274;140773;-74
2022/02/25 00:31:15;;;;;;;3.60;2.50;;;;;;;6.81;62.57;99100.95;215124;1274;139050;-66
2022/02/25 00:36:22;;;;;;;10.50;3.40;;;;;;;6.80;62.73;99093.35;214141;1276;139554;-71
2022/02/25 00:41:27;;;;;;;3.70;3.20;;;;;;;6.80;61.86;99098.37;214308;1276;139559;-70
2022/02/25 00:46:31;;;;;;;8.90;4.20;;;;;;;6.77;62.46;99098.35;214246;1276;139110;-70
2022/02/25 00:51:36;;;;;;;8.60;4.30;;;;;;;6.75;62.15;99100.58;215280;1274;139375;-70
2022/02/25 00:56:41;;;;;;;8.20;3.70;;;;;;;6.77;61.86;99098.24;215963;1274;140169;-71
2022/02/25 01:01:47;;;;;;;6.20;3.70;;;;;;;6.81;62.08;99097.66;215873;1274;140757;-71
2022/02/25 01:06:55;;;;;;;6.00;3.30;;;;;;;6.81;61.89;99092.47;215985;1274;139437;-70
2022/02/25 01:12:00;;;;;;;7.00;3.10;;;;;;;6.78;61.72;99086.61;215966;1274;140985;-72
2022/02/25 01:17:04;;;;;;;6.30;3.50;;;;;;;6.73;61.79;99083.96;215257;1274;139384;-72
2022/02/25 01:22:09;;;;;;;15.80;4.50;;;;;;;6.69;61.58;99082.92;215614;1274;139839;-70
2022/02/25 01:27:15;;;;;;;9.10;3.70;;;;;;;6.65;61.57;99081.84;213225;1276;139091;-67
2022/02/25 01:32:19;;;;;;;2.70;2.30;;;;;;;6.59;61.54;99078.41;214878;1276;138884;-71
2022/02/25 01:37:24;;;;;;;4.40;3.10;;;;;;;6.52;61.82;99078.41;215151;1277;139477;-72
2022/02/25 01:42:27;;;;;;;8.10;3.20;;;;;;;6.49;61.75;99075.69;214722;1276;139730;-73
2022/02/25 01:47:31;;;;;;;6.60;4.30;;;;;;;6.51;62.09;99078.44;212928;1276;139649;-71
2022/02/25 01:52:36;;;;;;;6.30;3.20;;;;;;;6.53;62.04;99083.91;214403;1275;138910;-72
2022/02/25 01:57:40;;;;;;;8.00;3.50;;;;;;;6.54;62.03;99075.39;213707;1274;232153;-71
2022/02/25 02:02:44;;;;;;;3.60;2.90;;;;;;;6.54;62.18;99073.38;213656;1274;139779;-67
2022/02/25 02:07:49;;;;;;;12.80;4.40;;;;;;;6.54;62.47;99080.96;214191;1275;140527;-71
2022/02/25 02:12:54;;;;;;;4.10;3.00;;;;;;;6.55;62.03;99088.89;214433;1276;139995;-72
2022/02/25 02:17:58;;;;;;;4.10;2.70;;;;;;;6.56;62.23;99100.13;213984;1275;139394;-72
2022/02/25 02:23:03;;;;;;;4.20;3.00;;;;;;;6.57;62.68;99111.77;213741;1275;141166;-70
2022/02/25 02:28:20;;;;;;;6.00;4.30;;;;;;;6.58;62.74;99119.85;214658;1274;139733;-72
2022/02/25 02:33:24;;;;;;;;;;;;;;;6.59;63.03;99118.98;213734;1274;140563;-69
2022/02/25 02:38:30;;;;;;;6.00;2.60;;;;;;;6.57;63.20;99115.79;214792;1275;126419;-69
2022/02/25 02:43:37;;;;;;;6.70;2.60;;;;;;;6.59;63.48;99125.75;214759;1274;139386;-68
2022/02/25 02:48:43;;;;;;;5.30;3.30;;;;;;;6.63;63.40;99127.13;214853;1274;139548;-67
2022/02/25 02:53:47;;;;;;;5.70;2.90;;;;;;;6.68;63.28;99114.40;215122;1274;141610;-69
2022/02/25 02:58:56;;;;;;;7.10;3.10;;;;;;;6.71;63.46;99127.59;213957;1274;140778;-67
2022/02/25 03:04:01;;;;;;;5.50;3.60;;;;;;;6.76;63.47;99147.27;215131;1276;141363;-72
2022/02/25 03:09:05;;;;;;;2.90;2.60;;;;;;;6.79;63.50;99147.68;215214;1276;141764;-73
2022/02/25 03:14:10;;;;;;;5.40;2.80;;;;;;;6.80;63.11;99175.06;215691;1273;140148;-74
2022/02/25 03:19:14;;;;;;;1.50;1.00;;;;;;;6.80;62.43;99197.52;215857;1275;139518;-74
2022/02/25 03:24:19;;;;;;;3.90;0.80;;;;;;;6.75;61.93;99213.15;214603;1274;140802;-75
2022/02/25 03:29:22;;;;;;;1.10;0.40;;;;;;;6.63;62.26;99209.39;215384;1274;140636;-75
2022/02/25 03:34:26;;;;;;;0.50;0.50;;;;;;;6.50;62.01;99230.17;214889;1275;139555;-73
2022/02/25 03:39:30;;;;;;;2.30;0.90;;;;;;;6.40;62.27;99251.55;215509;1274;139613;-75
2022/02/25 03:44:35;;;;;;;2.00;0.60;;;;;;;6.29;61.94;99273.53;214653;1274;139223;-74
2022/02/25 03:49:39;;;;;;;4.60;0.40;;;;;;;6.14;62.07;99273.80;214670;1274;140009;-71
2022/02/25 03:54:43;;;;;;;0.70;0.70;;;;;;;5.99;62.19;99289.55;215729;1274;141219;-71
2022/02/25 03:59:47;;;;;;;0.40;0.40;;;;;;;5.89;62.51;99304.30;215214;1274;140416;-70
2022/02/25 04:04:53;;;;;;;0.70;0.40;;;;;;;5.78;62.61;99329.48;214448;1274;141794;-69
2022/02/25 04:10:01;;;;;;;0.80;0.80;;;;;;;5.64;63.19;99337.77;214126;1274;140317;-69
2022/02/25 04:15:08;;;;;;;1.00;1.00;;;;;;;5.49;64.13;99353.60;215225;1274;140702;-70
2022/02/25 04:20:12;;;;;;;2.50;0.80;;;;;;;5.22;64.71;99355.34;214131;1274;142615;-68
2022/02/25 04:25:17;;;;;;;0.90;0.70;;;;;;;5.07;65.45;99359.55;213795;1274;141054;-69
2022/02/25 04:30:22;;;;;;;0.30;0.30;;;;;;;4.95;65.91;99363.59;213554;1274;141073;-69
2022/02/25 04:35:27;;;;;;;0.90;0.30;;;;;;;4.83;66.44;99368.55;213146;1276;141212;-70
2022/02/25 04:40:31;;;;;;;2.20;0.90;;;;;;;4.72;66.76;99373.60;213183;1274;141294;-69
2022/02/25 04:45:35;;;;;;;1.70;1.30;;;;;;;4.62;67.33;99392.41;215123;1275;141357;-70
2022/02/25 04:50:40;;;;;;;3.10;1.90;;;;;;;4.53;67.84;99406.94;212965;1274;141628;-71
2022/02/25 04:55:46;;;;;;;2.10;1.90;;;;;;;4.44;68.26;99418.95;214746;1274;210411;-69
2022/02/25 05:00:51;;;;;;;1.90;1.70;;;;;;;4.39;68.61;99436.80;215562;1274;140941;-71
2022/02/25 05:05:56;;;;;;;2.00;1.90;;;;;;;4.34;68.78;99444.10;214965;1274;141705;-69
2022/02/25 05:11:01;;;;;;;2.00;1.60;;;;;;;4.30;68.82;99456.11;215519;1274;142124;-70
2022/02/25 05:21:28;;;;;;;1.60;1.50;;;;;;;4.23;68.72;99467.11;215238;1274;140451;-71
2022/02/25 05:26:32;;;;;;;1.90;1.80;;;;;;;4.20;68.54;99479.85;215782;1274;140146;-72
2022/02/25 05:31:36;;;;;;;2.00;1.20;;;;;;;4.20;68.69;99490.49;214921;1274;206838;-69
2022/02/25 05:36:41;;;;;;;1.20;1.10;;;;;;;4.20;68.64;99502.70;215072;1274;141302;-69
2022/02/25 05:41:45;;;;;;;1.40;1.30;;;;;;;4.18;68.56;99514.15;214457;1274;141405;-70
2022/02/25 05:46:52;;;;;;;2.20;2.10;;;;;;;4.19;68.59;99524.21;213471;1276;140818;-68
2022/02/25 05:52:00;;;;;;;1.60;1.60;;;;;;;4.20;68.60;99535.30;214764;1274;142395;-72
2022/02/25 05:57:05;;;;;;;1.80;1.40;;;;;;;4.14;68.59;99542.13;214654;1274;163211;-72
2022/02/25 06:02:09;;;;;;;1.90;1.80;;;;;;;4.13;68.70;99548.73;213857;1274;221353;-72
2022/02/25 06:07:16;;;;;;;2.30;2.10;;;;;;;4.13;68.62;99565.29;214620;1274;140025;-71
2022/02/25 06:12:20;;;;;;;1.70;1.60;;;;;;;4.16;68.75;99574.56;215096;1274;140350;-68
2022/02/25 06:17:26;;;;;;;1.20;1.10;;;;;;;4.17;68.64;99588.33;214123;1274;140515;-68
2022/02/25 06:22:32;;;;;;;1.70;1.60;;;;;;;4.13;68.50;99588.92;213938;1274;143679;-69
2022/02/25 06:27:38;;;;;;;1.90;1.80;;;;;;;4.12;68.42;99593.41;214442;1274;143102;-69
2022/02/25 06:32:42;;;;;;;1.80;1.60;;;;;;;4.12;68.12;99603.84;213829;1274;140440;-68
2022/02/25 06:37:46;;;;;;;3.30;2.20;;;;;;;4.16;68.06;99611.17;214045;1274;141800;-70
2022/02/25 06:42:50;;;;;;;4.00;2.20;;;;;;;4.23;68.22;99620.47;213842;1274;140900;-73
2022/02/25 06:47:54;;;;;;;1.60;1.40;;;;;;;4.28;68.02;99635.49;213272;1274;141217;-70
2022/02/25 06:52:57;;;;;;;3.90;2.90;;;;;;;4.33;67.88;99641.27;214508;1274;140556;-75
2022/02/25 06:58:06;;;;;;;1.60;1.50;;;;;;;4.38;67.88;99653.72;214588;1274;140207;-73
2022/02/25 07:03:09;;;;;;;2.60;2.20;;;;;;;4.35;67.70;99670.84;214491;1274;139672;-69
2022/02/25 07:08:13;;;;;;;4.50;2.90;;;;;;;4.33;67.77;99684.67;215774;1274;142619;-70
2022/02/25 07:13:19;;;;;;;2.50;2.20;;;;;;;4.25;67.42;99701.17;216108;1273;141562;-73
2022/02/25 07:18:22;;;;;;;1.50;1.40;;;;;;;4.21;67.10;99713.29;215962;1274;140594;-73
2022/02/25 07:23:30;;;;;;;;;;;;;;;4.23;66.95;99726.89;215923;1274;142872;-76
2022/02/25 07:28:34;;;;;;;3.70;1.90;;;;;;;4.65;67.01;99730.52;216746;1274;127811;-72
2022/02/25 07:33:38;;;;;;;2.30;1.90;;;;;;;5.39;66.46;99733.23;215869;1275;140911;-73
2022/02/25 07:38:42;;;;;;;2.80;1.80;;;;;;;6.60;65.74;99731.95;215851;1274;140397;-74
2022/02/25 07:43:46;;;;;;;4.00;1.90;;;;;;;7.63;64.85;99735.77;215476;1274;140243;-72
2022/02/25 07:48:52;;;;;;;1.40;1.30;;;;;;;8.28;63.36;99740.33;213816;1274;141553;-71
2022/02/25 07:53:57;;;;;;;1.60;0.80;;;;;;;8.47;61.68;99754.33;214812;1274;141038;-71
2022/02/25 07:59:04;;;;;;;4.20;1.60;;;;;;;7.85;60.26;99757.40;214505;1274;140032;-72
2022/02/25 08:04:09;;;;;;;4.60;2.30;;;;;;;7.22;60.79;99764.55;215197;1274;141047;-72
2022/02/25 08:09:14;;;;;;;2.20;2.00;;;;;;;6.67;60.76;99772.12;215265;1274;141805;-73
2022/02/25 08:14:18;;;;;;;1.30;1.30;;;;;;;6.16;61.16;99778.24;213990;1274;140667;-71
2022/02/25 08:19:23;;;;;;;3.70;1.70;;;;;;;5.84;61.61;99789.34;214585;1274;140621;-74
2022/02/25 08:24:28;;;;;;;2.50;1.50;;;;;;;5.57;61.71;99792.95;213045;1274;140271;-70
2022/02/25 08:29:32;;;;;;;2.70;1.70;;;;;;;5.39;62.10;99796.91;213992;1274;140075;-77
2022/02/25 08:34:37;;;;;;;2.40;1.60;;;;;;;5.34;62.30;99807.27;214199;1274;140345;-77
2022/02/25 08:39:42;;;;;;;2.00;1.60;;;;;;;5.32;62.38;99805.30;213116;1274;140653;-74
2022/02/25 08:44:47;;;;;;;2.50;1.50;;;;;;;5.28;61.97;99808.79;213339;1274;142325;-71
2022/02/25 08:49:51;;;;;;;4.30;1.90;;;;;;;5.19;61.88;99814.73;214893;1273;140794;-77
2022/02/25 08:54:55;;;;;;;3.80;1.80;;;;;;;5.07;61.83;99821.60;213519;1274;141342;-75
2022/02/25 09:00:00;;;;;;;5.30;1.50;;;;;;;5.03;62.17;99827.84;213974;1274;140309;-66
2022/02/25 09:05:04;;;;;;;3.50;2.50;;;;;;;5.03;62.12;99831.46;214896;1274;141267;-74
2022/02/25 09:10:09;;;;;;;4.20;1.70;;;;;;;5.01;62.16;99838.15;214609;1274;140209;-75
2022/02/25 09:15:16;;;;;;;5.30;2.30;;;;;;;5.06;62.16;99852.61;213581;1274;141237;-76
2022/02/25 09:20:21;;;;;;;2.70;1.60;;;;;;;5.15;61.89;99858.40;214330;1274;139719;-71
2022/02/25 09:25:26;;;;;;;7.40;3.10;;;;;;;5.28;61.79;99860.88;214289;1274;141527;-74
2022/02/25 09:30:30;;;;;;;4.80;3.20;;;;;;;5.38;61.81;99866.83;214618;1274;142513;-77
2022/02/25 09:35:34;;;;;;;4.70;2.30;;;;;;;5.41;61.69;99876.15;215818;1274;140970;-77
2022/02/25 09:40:38;;;;;;;3.70;2.30;;;;;;;5.50;62.01;99878.54;215495;1273;139127;-74
2022/02/25 09:45:42;;;;;;;2.90;1.60;;;;;;;5.77;61.77;99878.21;215952;1274;139518;-74
2022/02/25 09:50:51;;;;;;;6.50;2.70;;;;;;;6.05;61.70;99877.36;215993;1274;141213;-74
2022/02/25 09:55:56;;;;;;;55.10;25.20;;;;;;;6.18;61.07;99881.09;215860;1274;139741;-74
2022/02/25 10:01:00;;;;;;;16.30;9.00;;;;;;;6.26;60.73;99894.47;214897;1274;140734;-73
2022/02/25 10:06:10;;;;;;;8.60;3.40;;;;;;;6.39;60.67;99897.51;215322;1274;139713;-69
2022/02/25 10:11:15;;;;;;;5.40;2.90;;;;;;;6.41;60.23;99911.30;214442;1274;160323;-77
2022/02/25 10:16:25;;;;;;;5.60;2.50;;;;;;;6.60;60.14;99910.24;214814;1274;161193;-72
2022/02/25 10:21:30;;;;;;;3.10;2.50;;;;;;;6.72;59.46;99913.45;213659;1274;142246;-77
2022/02/25 10:26:36;;;;;;;4.00;2.70;;;;;;;6.58;59.43;99920.10;214146;1274;140085;-76
2022/02/25 10:31:44;;;;;;;2.20;2.10;;;;;;;6.40;58.77;99926.66;214256;1274;138917;-76
2022/02/25 10:36:51;;;;;;;4.40;3.10;;;;;;;6.18;58.75;99924.88;213035;1274;140178;-74
2022/02/25 10:42:16;;;;;;;2.80;2.50;;;;;;;6.08;58.95;99930.00;214477;1276;149724;-75
2022/02/25 10:47:24;;;;;;;2.30;2.20;;;;;;;6.27;59.47;99923.11;212750;1274;140329;-72
2022/02/25 10:52:35;;;;;;;3.00;2.60;;;;;;;6.16;58.89;99936.81;213999;1274;140994;-76
2022/02/25 10:57:43;;;;;;;4.60;2.60;;;;;;;6.04;59.44;99935.45;214463;1274;140169;-76
2022/02/25 11:02:48;;;;;;;6.10;3.70;;;;;;;6.39;59.33;99927.59;215300;1274;140209;-76
2022/02/25 11:07:55;;;;;;;2.80;2.60;;;;;;;6.95;59.37;99927.77;213983;1274;139208;-74
2022/02/25 11:13:05;;;;;;;4.40;2.70;;;;;;;7.47;59.33;99931.10;214215;1274;140816;-76
2022/02/25 11:18:13;;;;;;;3.70;2.50;;;;;;;7.92;58.36;99933.35;214408;1274;140879;-76
2022/02/25 11:23:17;;;;;;;5.30;2.70;;;;;;;8.22;57.93;99926.88;213688;1274;140824;-75
2022/02/25 11:28:25;;;;;;;6.60;2.60;;;;;;;8.28;57.27;99929.79;215362;1274;202243;-75
2022/02/25 11:33:30;;;;;;;;;;;;;;;8.02;56.71;99934.69;215325;1274;140560;-74
2022/02/25 11:38:45;;;;;;;5.00;2.50;;;;;;;7.96;56.74;99925.41;216474;1274;128569;-76
2022/02/25 11:43:52;;;;;;;2.40;2.10;;;;;;;8.38;56.87;99925.48;213539;1274;141136;-76
2022/02/25 11:49:12;;;;;;;6.40;2.40;;;;;;;8.66;56.07;99923.67;215945;1274;139782;-76
2022/02/25 11:54:23;;;;;;;4.60;2.80;;;;;;;8.63;55.21;99924.06;216139;1274;140147;-76
2022/02/25 11:59:34;;;;;;;2.40;1.80;;;;;;;8.28;54.32;99932.20;215712;1274;139613;-76
2022/02/25 12:04:39;;;;;;;2.30;1.90;;;;;;;8.20;54.69;99936.88;215676;1274;140891;-77
2022/02/25 12:09:50;;;;;;;1.80;1.70;;;;;;;8.24;54.11;99936.26;214840;1274;139216;-77
2022/02/25 12:15:26;;;;;;;1.40;1.30;;;;;;;8.11;53.54;99943.62;213792;1274;140963;-73
2022/02/25 12:20:37;;;;;;;5.40;2.00;;;;;;;7.74;52.86;99944.62;214668;1274;141048;-76
2022/02/25 12:25:42;;;;;;;8.30;2.70;;;;;;;7.83;53.24;99943.44;214352;1274;140319;-75
2022/02/25 12:30:54;;;;;;;3.10;2.80;;;;;;;8.06;53.67;99938.98;213245;1274;140462;-76
2022/02/25 12:36:01;;;;;;;4.30;2.40;;;;;;;8.13;52.90;99942.63;214834;1274;141630;-76
2022/02/25 12:41:11;;;;;;;3.20;2.10;;;;;;;7.95;52.66;99946.56;215307;1274;140418;-76
2022/02/25 12:46:21;;;;;;;4.80;2.60;;;;;;;7.74;52.90;99944.46;213839;1273;140118;-76
2022/02/25 12:51:26;;;;;;;4.60;2.30;;;;;;;7.59;53.14;99950.69;213778;1276;140389;-75
2022/02/25 12:56:37;;;;;;;5.00;2.20;;;;;;;7.40;53.27;99959.94;214511;1274;140268;-75
2022/02/25 13:02:10;;;;;;;4.00;2.90;;;;;;;7.14;53.69;99961.58;214338;1274;140480;-78
2022/02/25 13:07:20;;;;;;;2.10;1.90;;;;;;;7.07;53.77;99959.64;213813;1274;140381;-76
2022/02/25 13:12:25;;;;;;;4.60;2.20;;;;;;;7.32;54.12;99956.20;214229;1274;141875;-75
2022/02/25 13:17:33;;;;;;;2.20;2.00;;;;;;;7.22;53.26;99961.73;213941;1275;139801;-75
2022/02/25 13:22:43;;;;;;;3.40;2.30;;;;;;;6.95;53.19;99965.12;214223;1274;141167;-77
2022/02/25 13:27:48;;;;;;;3.70;2.40;;;;;;;6.76;53.67;99971.28;214582;1274;139682;-72
2022/02/25 13:33:00;;;;;;;2.90;2.10;;;;;;;6.57;54.10;99973.12;214831;1274;142025;-74
2022/02/25 13:38:22;;;;;;;5.20;3.30;;;;;;;6.61;54.12;99976.02;215674;1274;141006;-75
2022/02/25 13:43:30;;;;;;;3.80;2.30;;;;;;;6.47;54.12;99979.05;215790;1275;139429;-76
2022/02/25 13:54:09;;;;;;;4.00;3.10;;;;;;;6.64;54.41;99970.27;216369;1274;126314;-77
2022/02/25 13:59:16;;;;;;;2.60;1.30;;;;;;;6.68;53.79;99966.94;215765;1274;140240;-77
2022/02/25 14:04:23;;;;;;;3.50;1.60;;;;;;;6.74;53.12;99967.70;214373;1275;139251;-75
2022/02/25 14:09:30;;;;;;;2.00;1.40;;;;;;;6.67;53.20;99976.95;215785;1274;139857;-76
2022/02/25 14:14:36;;;;;;;2.70;1.40;;;;;;;6.79;53.20;99973.55;213103;1276;139553;-76
2022/02/25 14:19:41;;;;;;;3.10;1.70;;;;;;;6.77;53.00;99973.51;214708;1274;140828;-75
2022/02/25 14:24:47;;;;;;;5.10;2.30;;;;;;;6.84;52.64;99969.40;214767;1274;140129;-76
2022/02/25 14:30:05;;;;;;;2.90;1.60;;;;;;;6.86;52.86;99970.70;213740;1274;597033;-76
2022/02/25 14:35:30;;;;;;;3.90;1.40;;;;;;;6.70;53.10;99977.60;214214;1274;141643;-76
2022/02/25 14:40:35;;;;;;;3.70;1.70;;;;;;;6.69;53.20;99989.06;213221;1274;141529;-69
2022/02/25 14:45:46;;;;;;;4.40;1.90;;;;;;;6.76;52.99;99990.64;213592;1275;139489;-76
2022/02/25 14:50:52;;;;;;;4.80;1.70;;;;;;;6.79;53.21;99995.90;214526;1274;140387;-74
2022/02/25 14:55:56;;;;;;;2.90;1.30;;;;;;;6.83;53.62;99999.52;214263;1275;140323;-70
2022/02/25 15:01:01;;;;;;;3.10;1.90;;;;;;;6.85;53.25;100003.00;213856;1275;139380;-75
2022/02/25 15:06:05;;;;;;;2.90;1.40;;;;;;;6.89;52.85;100010.75;213631;1276;139634;-75
2022/02/25 15:11:09;;;;;;;3.10;1.90;;;;;;;6.85;52.96;100012.86;214084;1276;140440;-75
2022/02/25 15:16:14;;;;;;;3.40;1.60;;;;;;;6.77;52.94;100019.59;213245;1274;140075;-73
2022/02/25 15:21:19;;;;;;;5.20;1.90;;;;;;;6.62;53.09;100025.77;213107;1276;140057;-74
2022/02/25 15:26:24;;;;;;;10.50;2.50;;;;;;;6.40;53.07;100029.64;214884;1274;140603;-75
2022/02/25 15:31:27;;;;;;;3.60;1.80;;;;;;;6.18;53.35;100026.77;213600;1276;139977;-74
2022/02/25 15:36:33;;;;;;;3.00;2.00;;;;;;;6.04;53.78;100031.17;214256;1276;141507;-75
2022/02/25 15:41:38;;;;;;;2.90;2.10;;;;;;;5.88;53.87;100035.55;214972;1274;139367;-73
2022/02/25 15:46:43;;;;;;;4.10;2.50;;;;;;;5.69;54.15;100042.62;215700;1274;140712;-75
2022/02/25 15:51:49;;;;;;;3.80;1.90;;;;;;;5.56;54.51;100048.52;215123;1275;140242;-70
2022/02/25 15:56:54;;;;;;;5.50;2.10;;;;;;;5.46;54.86;100055.65;215690;1275;140590;-75
2022/02/25 16:02:01;;;;;;;4.00;2.50;;;;;;;5.29;54.97;100060.98;215354;1277;139878;-75
2022/02/25 16:07:10;;;;;;;4.50;2.30;;;;;;;5.15;55.25;100066.29;214850;1277;140236;-75
2022/02/25 16:12:17;;;;;;;4.30;2.10;;;;;;;5.02;55.72;100073.66;215760;1276;140029;-75
2022/02/25 16:17:22;;;;;;;3.70;1.90;;;;;;;4.89;55.85;100080.82;215793;1274;140377;-74
2022/02/25 16:22:26;;;;;;;5.10;2.30;;;;;;;4.74;56.00;100089.41;214707;1274;141872;-75
2022/02/25 16:27:30;;;;;;;4.90;2.40;;;;;;;4.61;56.13;100095.99;215033;1274;139743;-78
2022/02/25 16:32:33;;;;;;;7.20;2.40;;;;;;;4.53;55.97;100102.04;215374;1275;140568;-76
2022/02/25 16:37:39;;;;;;;5.70;2.90;;;;;;;4.47;55.95;100105.14;215244;1274;140457;-72
2022/02/25 16:42:44;;;;;;;4.40;2.70;;;;;;;4.40;55.89;100107.21;215080;1274;160343;-74
2022/02/25 16:47:48;;;;;;;9.50;3.00;;;;;;;4.34;56.09;100111.81;213994;1276;153705;-74
2022/02/25 16:52:54;;;;;;;8.10;2.40;;;;;;;4.24;55.78;100116.20;214095;1274;141028;-75
2022/02/25 16:57:58;;;;;;;2.70;1.70;;;;;;;4.12;56.01;100116.58;213715;1275;140708;-74
2022/02/25 17:03:02;;;;;;;4.80;2.90;;;;;;;4.03;56.20;100121.16;214678;1276;141604;-74
2022/02/25 17:08:07;;;;;;;1.10;0.90;;;;;;;3.94;56.27;100136.06;213843;1274;141921;-73
2022/02/25 17:13:14;;;;;;;5.80;3.20;;;;;;;3.80;56.42;100143.89;213149;1275;141411;-74
2022/02/25 17:18:20;;;;;;;5.00;2.90;;;;;;;3.67;56.58;100151.62;214348;1274;140950;-74
2022/02/25 17:23:24;;;;;;;2.50;2.00;;;;;;;3.55;56.80;100157.14;214438;1276;141588;-73
2022/02/25 17:28:27;;;;;;;5.10;2.50;;;;;;;3.45;56.95;100165.40;214359;1276;142435;-74
2022/02/25 17:33:32;;;;;;;6.50;2.80;;;;;;;3.34;57.40;100173.08;213178;1276;140396;-75
2022/02/25 17:38:36;;;;;;;5.10;2.40;;;;;;;3.28;57.86;100183.21;213549;1276;140426;-70
2022/02/25 17:43:40;;;;;;;7.10;3.40;;;;;;;3.23;58.42;100188.29;214454;1276;140749;-73
2022/02/25 17:48:45;;;;;;;7.00;1.70;;;;;;;3.19;58.57;100194.53;214687;1276;139916;-75
2022/02/25 17:53:49;;;;;;;6.30;2.40;;;;;;;3.19;59.08;100198.29;215597;1277;150791;-76
2022/02/25 17:58:54;;;;;;;3.90;2.90;;;;;;;3.22;59.39;100201.55;214422;1277;140769;-75
2022/02/25 18:03:58;;;;;;;4.40;2.10;;;;;;;3.23;59.59;100209.39;213279;1277;142736;-74
2022/02/25 18:09:03;;;;;;;7.20;3.00;;;;;;;3.21;59.63;100213.52;215866;1276;140264;-78
2022/02/25 18:14:08;;;;;;;15.00;4.10;;;;;;;3.12;59.83;100216.57;215919;1276;141072;-76
2022/02/25 18:19:12;;;;;;;6.50;4.40;;;;;;;3.15;60.21;100223.70;215122;1277;142032;-74
2022/02/25 18:24:16;;;;;;;7.50;3.30;;;;;;;3.19;60.08;100222.30;215920;1274;140903;-75
2022/02/25 18:29:21;;;;;;;10.20;5.60;;;;;;;3.20;60.28;100228.91;213224;1274;139757;-73
2022/02/25 18:34:26;;;;;;;9.70;5.90;;;;;;;3.20;60.69;100229.40;214526;1274;140734;-71
2022/02/25 18:39:34;;;;;;;7.90;4.70;;;;;;;3.17;60.80;100230.30;214840;1274;142207;-75
2022/02/25 18:44:44;;;;;;;7.00;3.80;;;;;;;3.12;61.14;100228.92;213659;1275;141961;-74
2022/02/25 18:49:49;;;;;;;9.40;5.80;;;;;;;3.13;61.11;100229.84;213947;1274;142427;-72
2022/02/25 18:54:54;;;;;;;7.30;4.30;;;;;;;3.14;61.33;100231.17;214116;1274;151060;-73
2022/02/25 18:59:59;;;;;;;9.60;5.50;;;;;;;3.12;61.47;100230.27;214231;1274;141364;-75
2022/02/25 19:05:05;;;;;;;8.90;5.40;;;;;;;3.10;61.20;100225.80;214958;1275;140108;-74
2022/02/25 19:10:09;;;;;;;9.70;5.00;;;;;;;3.11;61.33;100227.67;214173;1274;140164;-73
2022/02/25 19:15:13;;;;;;;12.00;5.70;;;;;;;3.15;61.46;100225.81;213867;1274;141308;-73
2022/02/25 19:20:18;;;;;;;11.80;4.20;;;;;;;3.20;61.31;100233.81;213284;1274;141296;-75
2022/02/25 19:25:23;;;;;;;9.60;5.00;;;;;;;3.22;61.36;100235.28;215579;1274;139970;-76
2022/02/25 19:30:28;;;;;;;9.50;4.50;;;;;;;3.24;61.21;100238.80;212854;1274;140282;-73
2022/02/25 19:35:33;;;;;;;10.90;5.40;;;;;;;3.22;61.60;100244.92;213284;1275;142678;-74
2022/02/25 19:40:37;;;;;;;9.20;5.20;;;;;;;3.21;61.25;100248.06;213212;1274;140785;-70
2022/02/25 19:45:43;;;;;;;17.30;8.10;;;;;;;3.17;61.18;100252.27;214308;1274;140580;-72
2022/02/25 19:50:47;;;;;;;22.20;7.40;;;;;;;3.08;61.37;100253.58;215211;1274;140375;-74
2022/02/25 19:55:51;;;;;;;12.00;5.90;;;;;;;2.99;61.71;100254.82;214440;1274;140384;-75
2022/02/25 20:00:56;;;;;;;22.00;9.40;;;;;;;2.92;61.80;100257.72;214222;1274;141050;-75
2022/02/25 20:06:04;;;;;;;15.00;8.60;;;;;;;2.89;62.14;100266.45;215335;1274;141241;-76
2022/02/25 20:11:08;;;;;;;12.10;7.00;;;;;;;2.87;62.24;100265.27;215841;1274;139817;-75
2022/02/25 20:16:13;;;;;;;19.30;8.50;;;;;;;2.86;62.26;100267.31;214518;1274;142062;-74
2022/02/25 20:21:16;;;;;;;13.70;7.10;;;;;;;2.90;62.34;100276.71;215885;1274;140309;-71
2022/02/25 20:26:21;;;;;;;18.20;9.20;;;;;;;2.89;62.59;100278.59;215698;1274;139351;-74
2022/02/25 20:31:28;;;;;;;14.20;9.40;;;;;;;2.90;62.49;100284.58;216040;1274;139874;-75
2022/02/25 20:36:33;;;;;;;21.60;9.70;;;;;;;2.90;62.43;100287.34;215507;1274;139961;-70
2022/02/25 20:41:37;;;;;;;19.90;9.50;;;;;;;2.90;62.61;100290.44;213639;1274;140706;-73
2022/02/25 20:46:42;;;;;;;15.50;8.40;;;;;;;2.88;62.74;100293.37;214508;1274;141610;-72
2022/02/25 20:51:47;;;;;;;15.90;7.90;;;;;;;2.91;62.68;100298.90;213659;1277;140969;-72
2022/02/25 20:56:51;;;;;;;19.80;8.10;;;;;;;2.93;62.75;100300.16;213744;1274;141625;-73
2022/02/25 21:01:56;;;;;;;12.60;6.60;;;;;;;2.95;62.78;100307.70;214527;1274;150761;-77
2022/02/25 21:07:01;;;;;;;18.90;8.10;;;;;;;2.95;62.62;100308.59;214710;1274;140755;-75
2022/02/25 21:12:05;;;;;;;18.30;8.30;;;;;;;2.99;62.38;100311.38;214382;1274;140428;-73
2022/02/25 21:17:09;;;;;;;16.60;8.30;;;;;;;3.04;62.27;100319.75;213016;1274;139960;-69
2022/02/25 21:22:13;;;;;;;12.00;6.20;;;;;;;3.07;62.55;100322.40;214308;1274;139817;-72
2022/02/25 21:27:17;;;;;;;13.00;6.10;;;;;;;3.10;62.54;100330.84;213822;1274;139606;-74
2022/02/25 21:32:21;;;;;;;24.50;13.10;;;;;;;3.11;62.44;100331.45;214167;1274;140257;-72
2022/02/25 21:37:28;;;;;;;13.90;11.20;;;;;;;3.10;62.40;100334.69;213639;1274;141524;-72
2022/02/25 21:42:33;;;;;;;12.20;5.80;;;;;;;3.08;62.33;100337.15;214423;1274;142616;-76
2022/02/25 21:47:38;;;;;;;12.10;6.50;;;;;;;3.07;62.23;100337.33;213989;1276;142583;-77
2022/02/25 21:52:43;;;;;;;18.10;7.90;;;;;;;3.04;62.26;100343.71;214168;1275;140018;-74
2022/02/25 21:57:49;;;;;;;16.60;8.10;;;;;;;3.05;62.07;100347.50;214997;1274;140674;-74
2022/02/25 22:02:54;;;;;;;12.50;6.50;;;;;;;3.05;61.99;100347.00;215011;1274;142127;-75
2022/02/25 22:07:58;;;;;;;13.30;7.50;;;;;;;3.06;62.28;100348.99;214362;1274;141956;-78
2022/02/25 22:13:08;;;;;;;14.90;6.50;;;;;;;3.06;62.12;100358.61;215802;1276;139430;-76
2022/02/25 22:18:15;;;;;;;10.50;7.50;;;;;;;3.03;62.17;100354.91;215207;1274;141500;-77
2022/02/25 22:23:19;;;;;;;16.50;9.10;;;;;;;3.01;61.99;100351.51;215767;1274;140986;-71
2022/02/25 22:28:22;;;;;;;18.50;9.30;;;;;;;3.01;61.96;100351.70;214655;1274;161321;-74
2022/02/25 22:33:26;;;;;;;16.10;6.70;;;;;;;2.98;62.12;100355.09;215848;1274;141605;-75
2022/02/25 22:38:31;;;;;;;18.30;8.00;;;;;;;2.96;62.06;100356.79;214504;1274;141129;-77
2022/02/25 22:43:35;;;;;;;12.00;8.00;;;;;;;2.96;62.15;100367.97;215204;1274;139742;-78
2022/02/25 22:48:41;;;;;;;16.00;8.50;;;;;;;2.94;62.20;100370.15;215267;1276;139741;-73
2022/02/25 23:09:55;;;;;;;22.50;9.00;;;;;;;2.71;62.48;100384.91;214892;1274;140175;-80
2022/02/25 23:15:01;;;;;;;16.40;8.20;;;;;;;2.66;62.58;100385.17;214065;1274;140724;-73
2022/02/25 23:20:06;;;;;;;13.10;6.00;;;;;;;2.61;62.59;100385.11;214433;1274;140893;-76
2022/02/25 23:25:10;;;;;;;21.60;10.30;;;;;;;2.53;62.47;100380.11;215195;1274;139892;-73
2022/02/25 23:30:15;;;;;;;23.50;9.30;;;;;;;2.46;62.67;100388.29;215403;1274;140864;-78
2022/02/25 23:35:20;;;;;;;19.50;8.50;;;;;;;2.38;62.74;100392.36;214237;1274;142772;-75
2022/02/25 23:40:24;;;;;;;26.50;10.50;;;;;;;2.29;62.90;100403.42;214144;1274;140293;-76
2022/02/25 23:45:27;;;;;;;27.40;11.90;;;;;;;2.18;62.94;100407.27;213772;1274;141306;-74
2022/02/25 23:50:32;;;;;;;24.80;10.70;;;;;;;2.06;63.33;100415.27;213857;1274;141484;-78
2022/02/25 23:55:37;;;;;;;23.10;12.50;;;;;;;1.91;63.59;100417.04;215176;1274;141253;-78
